Time;durP1;ratioP1;P1;durP2;ratioP2;P2;SDS_P1;SDS_P2;PMS_P1;PMS_P2;Temp;Humidity;BMP_temperature;BMP_pressure;BME280_temperature;BME280_humidity;BME280_pressure;Samples;Min_cycle;Max_cycle;Signal;HPM_P1;HPM_P2
2022/04/22 00:00:50;;;;;;;;;;;8.50;99.90;;;;;;5073631;28;19930;-57
2022/04/22 00:03:17;;;;;;;;;;;8.50;99.90;;;;;;5073314;28;19958;-58
2022/04/22 00:05:45;;;;;;;;;;;8.40;99.90;;;;;;5058832;28;19979;-57
2022/04/22 00:08:11;;;;;;;;;;;8.30;99.90;;;;;;5073559;28;19970;-57
2022/04/22 00:11:28;;;;;;;;;;;8.30;99.90;;;;;;5073149;28;20448;-57
2022/04/22 00:13:26;;;;;;;;;;;8.30;99.90;;;;;;5069062;28;20382;-57
2022/04/22 00:15:53;;;;;;;;;;;8.30;99.90;;;;;;5072372;28;20015;-57
2022/04/22 00:18:19;;;;;;;;;;;8.20;99.90;;;;;;5073075;28;20348;-58
2022/04/22 00:20:47;;;;;;;;;;;8.10;99.90;;;;;;5072918;28;19925;-57
2022/04/22 00:23:14;;;;;;;;;;;8.20;99.90;;;;;;5061510;28;19970;-57
2022/04/22 00:25:41;;;;;;;;;;;8.10;99.90;;;;;;5071395;28;19932;-57
2022/04/22 00:28:08;;;;;;;;;;;8.40;99.90;;;;;;5065950;28;19924;-58
2022/04/22 00:30:34;;;;;;;;;;;8.40;99.90;;;;;;5069728;28;20398;-57
2022/04/22 00:33:01;;;;;;;;;;;8.20;99.90;;;;;;5072924;28;19925;-57
2022/04/22 00:35:28;;;;;;;;;;;8.10;99.90;;;;;;5056518;28;19925;-57
2022/04/22 00:37:56;;;;;;;;;;;8.10;99.90;;;;;;5053553;28;19943;-57
2022/04/22 00:40:23;;;;;;;;;;;8.00;99.90;;;;;;5066722;28;20000;-58
2022/04/22 00:42:50;;;;;;;;;;;8.00;99.90;;;;;;5052903;28;20361;-57
2022/04/22 00:45:19;;;;;;;;;;;8.00;99.90;;;;;;5066977;28;20046;-57
2022/04/22 00:47:46;;;;;;;;;;;7.80;99.90;;;;;;5069685;28;19929;-57
2022/04/22 00:50:13;;;;;;;;;;;7.80;99.90;;;;;;5072789;28;19925;-57
2022/04/22 00:52:40;;;;;;;;;;;7.80;99.90;;;;;;5072103;28;20255;-56
2022/04/22 00:55:08;;;;;;;;;;;7.70;99.90;;;;;;5061659;28;19933;-57
2022/04/22 00:57:35;;;;;;;;;;;7.60;99.90;;;;;;5070800;28;20382;-56
2022/04/22 01:00:03;;;;;;;;;;;7.60;99.90;;;;;;5072045;28;19925;-56
2022/04/22 01:02:30;;;;;;;;;;;7.60;99.90;;;;;;5072789;28;19925;-56
2022/04/22 01:10:28;;;;;;;;;;;7.50;99.90;;;;;;5072440;28;19931;-56
2022/04/22 01:12:55;;;;;;;;;;;7.40;99.90;;;;;;5070273;28;20008;-58
2022/04/22 01:15:22;;;;;;;;;;;7.40;99.90;;;;;;5066013;28;19978;-58
2022/04/22 01:17:49;;;;;;;;;;;7.40;99.90;;;;;;5070203;28;19977;-58
2022/04/22 01:20:16;;;;;;;;;;;7.40;99.90;;;;;;5069330;28;19928;-58
2022/04/22 01:22:44;;;;;;;;;;;7.30;99.90;;;;;;5068275;28;19924;-58
2022/04/22 01:25:11;;;;;;;;;;;7.30;99.90;;;;;;5057446;28;19924;-58
2022/04/22 01:27:38;;;;;;;;;;;7.30;99.90;;;;;;5071257;28;19928;-58
2022/04/22 01:30:06;;;;;;;;;;;7.20;99.90;;;;;;5069206;28;20432;-57
2022/04/22 01:32:33;;;;;;;;;;;7.20;99.90;;;;;;5070464;28;19931;-56
2022/04/22 01:35:00;;;;;;;;;;;7.50;99.90;;;;;;5072226;28;20505;-56
2022/04/22 01:37:27;;;;;;;;;;;7.60;99.90;;;;;;5071682;28;19978;-57
2022/04/22 01:39:55;;;;;;;;;;;8.00;99.90;;;;;;5067371;28;19986;-56
2022/04/22 01:42:22;;;;;;;;;;;8.00;99.90;;;;;;5069066;28;19924;-57
2022/04/22 01:44:49;;;;;;;;;;;7.90;99.90;;;;;;5072343;28;19985;-57
2022/04/22 01:47:16;;;;;;;;;;;7.90;99.90;;;;;;5071301;28;19986;-58
2022/04/22 01:49:43;;;;;;;;;;;8.00;99.90;;;;;;5070577;28;19925;-57
2022/04/22 01:52:10;;;;;;;;;;;8.20;99.90;;;;;;5052384;28;20066;-57
2022/04/22 01:54:36;;;;;;;;;;;8.20;99.90;;;;;;5052812;28;19974;-57
2022/04/22 01:57:05;;;;;;;;;;;8.10;99.90;;;;;;5058808;28;19933;-57
2022/04/22 01:59:32;;;;;;;;;;;7.90;99.90;;;;;;5070530;28;19954;-57
2022/04/22 02:01:59;;;;;;;;;;;7.80;99.90;;;;;;5070520;28;19939;-57
2022/04/22 02:04:26;;;;;;;;;;;7.70;99.90;;;;;;5067185;28;19925;-57
2022/04/22 02:06:53;;;;;;;;;;;7.60;99.90;;;;;;5069674;28;20333;-57
2022/04/22 02:09:19;;;;;;;;;;;7.50;99.90;;;;;;5065982;28;19985;-57
2022/04/22 02:11:46;;;;;;;;;;;7.50;99.90;;;;;;5069188;28;19929;-59
2022/04/22 02:14:14;;;;;;;;;;;7.50;99.90;;;;;;5068613;28;19924;-57
2022/04/22 02:16:41;;;;;;;;;;;7.40;99.90;;;;;;5070668;28;19982;-56
2022/04/22 02:19:07;;;;;;;;;;;7.20;99.90;;;;;;5070256;28;19974;-56
2022/04/22 02:21:34;;;;;;;;;;;7.20;99.90;;;;;;5067109;28;19925;-58
2022/04/22 02:24:01;;;;;;;;;;;7.10;99.90;;;;;;5070848;28;19924;-56
2022/04/22 02:28:31;;;;;;;;;;;7.00;99.90;;;;;;5070552;28;19925;-57
2022/04/22 02:29:17;;;;;;;;;;;7.00;99.90;;;;;;5064700;28;20223;-56
2022/04/22 02:31:44;;;;;;;;;;;7.10;99.90;;;;;;5068679;28;20484;-57
2022/04/22 02:34:10;;;;;;;;;;;7.00;99.90;;;;;;5068802;28;19924;-57
2022/04/22 02:36:37;;;;;;;;;;;7.00;99.90;;;;;;5068351;28;19928;-57
2022/04/22 02:39:04;;;;;;;;;;;6.90;99.90;;;;;;5069476;28;19982;-57
2022/04/22 02:47:00;;;;;;;;;;;6.80;99.90;;;;;;5071471;28;19932;-58
2022/04/22 02:49:27;;;;;;;;;;;6.90;99.90;;;;;;5070575;28;19974;-57
2022/04/22 02:51:54;;;;;;;;;;;6.90;99.90;;;;;;5067467;28;19939;-57
2022/04/22 02:54:20;;;;;;;;;;;7.10;99.90;;;;;;5069965;28;19924;-58
2022/04/22 02:56:50;;;;;;;;;;;7.20;99.90;;;;;;5069299;28;19928;-57
2022/04/22 02:59:17;;;;;;;;;;;7.20;99.90;;;;;;5069868;28;19982;-57
2022/04/22 03:01:45;;;;;;;;;;;7.30;99.90;;;;;;5065962;28;19928;-57
2022/04/22 03:04:15;;;;;;;;;;;7.30;99.90;;;;;;5068685;28;19991;-57
2022/04/22 03:06:42;;;;;;;;;;;7.10;99.90;;;;;;5068883;28;19936;-57
2022/04/22 03:09:08;;;;;;;;;;;7.10;99.90;;;;;;5070112;28;20567;-57
2022/04/22 03:11:36;;;;;;;;;;;7.00;99.90;;;;;;5066216;28;19970;-57
2022/04/22 03:14:03;;;;;;;;;;;6.90;99.90;;;;;;5066998;28;19971;-57
2022/04/22 03:16:30;;;;;;;;;;;7.00;99.90;;;;;;5068087;28;20059;-57
2022/04/22 03:18:57;;;;;;;;;;;7.10;99.90;;;;;;5070327;28;19929;-57
2022/04/22 03:21:25;;;;;;;;;;;7.10;99.90;;;;;;5065114;28;19925;-57
2022/04/22 03:23:52;;;;;;;;;;;7.00;99.90;;;;;;5063401;28;19936;-58
2022/04/22 03:26:19;;;;;;;;;;;7.00;99.90;;;;;;5067257;28;19938;-57
2022/04/22 03:28:46;;;;;;;;;;;7.00;99.90;;;;;;5069963;28;20434;-58
2022/04/22 03:31:13;;;;;;;;;;;6.90;99.90;;;;;;5069299;28;19931;-58
2022/04/22 03:33:40;;;;;;;;;;;6.90;99.90;;;;;;5071655;28;19928;-58
2022/04/22 03:36:07;;;;;;;;;;;6.80;99.90;;;;;;5067620;28;19925;-56
2022/04/22 03:38:35;;;;;;;;;;;6.80;99.90;;;;;;5063595;28;19936;-57
2022/04/22 03:41:03;;;;;;;;;;;6.70;99.90;;;;;;5065109;28;19978;-58
2022/04/22 03:43:30;;;;;;;;;;;6.70;99.90;;;;;;5065909;28;19924;-57
2022/04/22 03:45:56;;;;;;;;;;;6.60;99.90;;;;;;5062086;28;19970;-57
2022/04/22 03:48:23;;;;;;;;;;;6.60;99.90;;;;;;5060561;28;19932;-57
2022/04/22 03:50:50;;;;;;;;;;;6.60;99.90;;;;;;5059313;28;19925;-58
2022/04/22 03:53:17;;;;;;;;;;;6.60;99.90;;;;;;5066452;28;19973;-57
2022/04/22 03:55:45;;;;;;;;;;;6.60;99.90;;;;;;5067120;28;19924;-57
2022/04/22 03:58:12;;;;;;;;;;;6.50;99.90;;;;;;5058939;28;20365;-57
2022/04/22 04:00:40;;;;;;;;;;;6.50;99.90;;;;;;5073589;22;20354;-47
2022/04/22 04:03:07;;;;;;;;;;;6.50;99.90;;;;;;5043570;28;19972;-48
2022/04/22 04:05:34;;;;;;;;;;;6.40;99.90;;;;;;5044852;28;19964;-48
2022/04/22 04:08:01;;;;;;;;;;;6.40;99.90;;;;;;5042175;28;20398;-48
2022/04/22 04:16:01;;;;;;;;;;;6.40;99.90;;;;;;5046967;28;19948;-48
2022/04/22 04:18:29;;;;;;;;;;;6.30;99.90;;;;;;5045652;28;20024;-47
2022/04/22 04:23:40;;;;;;;;;;;6.30;99.90;;;;;;5043582;28;19927;-47
2022/04/22 04:26:08;;;;;;;;;;;6.20;99.90;;;;;;5046745;28;19979;-47
2022/04/22 04:28:36;;;;;;;;;;;6.20;99.90;;;;;;5042084;28;20291;-47
2022/04/22 04:31:03;;;;;;;;;;;6.20;99.90;;;;;;5049052;28;19924;-47
2022/04/22 04:33:30;;;;;;;;;;;6.20;99.90;;;;;;5052757;28;19932;-48
2022/04/22 04:35:58;;;;;;;;;;;6.30;99.90;;;;;;5043193;28;19999;-47
2022/04/22 04:38:25;;;;;;;;;;;6.20;99.90;;;;;;5043424;28;20004;-47
2022/04/22 04:40:52;;;;;;;;;;;6.30;99.90;;;;;;5052178;28;19924;-48
2022/04/22 04:43:19;;;;;;;;;;;6.30;99.90;;;;;;5043840;28;19932;-48
2022/04/22 04:45:49;;;;;;;;;;;6.40;99.90;;;;;;5043758;28;19931;-48
2022/04/22 04:48:16;;;;;;;;;;;6.50;99.90;;;;;;5051594;28;19925;-48
2022/04/22 04:50:43;;;;;;;;;;;6.60;99.90;;;;;;5048303;28;19925;-48
2022/04/22 04:53:10;;;;;;;;;;;6.60;99.90;;;;;;5042811;28;19928;-47
2022/04/22 04:55:36;;;;;;;;;;;6.70;99.90;;;;;;5045264;28;19928;-48
2022/04/22 04:58:04;;;;;;;;;;;6.80;99.90;;;;;;5052268;28;20349;-47
2022/04/22 05:00:31;;;;;;;;;;;7.00;99.90;;;;;;5051759;28;19925;-48
2022/04/22 05:02:59;;;;;;;;;;;7.10;99.90;;;;;;5051963;28;20375;-47
2022/04/22 05:05:26;;;;;;;;;;;7.20;99.90;;;;;;5048137;28;19947;-48
2022/04/22 05:07:55;;;;;;;;;;;7.20;99.90;;;;;;5052740;28;19925;-47
2022/04/22 05:10:22;;;;;;;;;;;7.40;99.90;;;;;;5052599;28;19924;-47
2022/04/22 05:12:50;;;;;;;;;;;7.40;99.90;;;;;;5050572;28;19936;-48
2022/04/22 05:15:17;;;;;;;;;;;7.50;99.90;;;;;;5052637;28;20346;-48
2022/04/22 05:17:44;;;;;;;;;;;7.70;99.90;;;;;;5052891;28;19971;-47
2022/04/22 05:20:13;;;;;;;;;;;7.90;99.90;;;;;;5052605;28;19978;-48
2022/04/22 05:22:40;;;;;;;;;;;8.50;99.90;;;;;;5051025;28;19925;-48
2022/04/22 05:25:07;;;;;;;;;;;9.10;99.90;;;;;;5047719;28;19925;-48
2022/04/22 05:27:35;;;;;;;;;;;9.60;99.90;;;;;;5048910;28;19932;-47
2022/04/22 05:32:48;;;;;;;;;;;10.80;99.90;;;;;;5051830;28;20006;-47
2022/04/22 05:35:17;;;;;;;;;;;11.50;99.90;;;;;;5052607;28;19925;-49
2022/04/22 05:37:44;;;;;;;;;;;11.30;99.90;;;;;;5052434;28;20353;-48
2022/04/22 05:40:11;;;;;;;;;;;11.80;99.90;;;;;;5052294;28;19979;-49
2022/04/22 05:42:39;;;;;;;;;;;12.60;99.90;;;;;;5052020;28;19986;-49
2022/04/22 05:45:06;;;;;;;;;;;13.60;99.90;;;;;;5049660;28;20028;-49
2022/04/22 05:47:33;;;;;;;;;;;13.80;99.90;;;;;;5052167;28;20358;-49
2022/04/22 05:50:00;;;;;;;;;;;13.50;99.90;;;;;;5051423;28;20349;-49
2022/04/22 05:52:28;;;;;;;;;;;13.10;99.90;;;;;;5051627;28;20295;-49
2022/04/22 05:54:58;;;;;;;;;;;13.30;99.90;;;;;;5049823;28;20432;-49
2022/04/22 05:57:24;;;;;;;;;;;13.70;99.90;;;;;;5051309;28;19924;-49
2022/04/22 05:59:51;;;;;;;;;;;14.10;99.90;;;;;;5051292;28;19932;-49
2022/04/22 06:02:19;;;;;;;;;;;13.50;99.90;;;;;;5052036;28;19925;-49
2022/04/22 06:04:46;;;;;;;;;;;13.70;99.90;;;;;;5051080;28;20297;-48
2022/04/22 06:07:13;;;;;;;;;;;13.70;99.90;;;;;;5042890;28;19928;-49
2022/04/22 06:12:25;;;;;;;;;;;13.00;99.90;;;;;;5041095;28;19931;-49
2022/04/22 06:14:52;;;;;;;;;;;13.10;99.90;;;;;;5038741;28;19995;-48
2022/04/22 06:17:18;;;;;;;;;;;13.00;99.90;;;;;;5036950;28;19925;-49
2022/04/22 06:19:45;;;;;;;;;;;12.70;99.90;;;;;;5040149;28;19925;-48
2022/04/22 06:22:12;;;;;;;;;;;12.40;99.90;;;;;;5047647;28;20329;-48
2022/04/22 06:24:39;;;;;;;;;;;11.70;99.90;;;;;;5040571;28;20155;-48
2022/04/22 06:27:09;;;;;;;;;;;11.20;99.90;;;;;;5035422;28;19979;-49
2022/04/22 06:29:36;;;;;;;;;;;11.10;99.90;;;;;;5032217;28;19932;-48
2022/04/22 06:32:03;;;;;;;;;;;11.40;99.90;;;;;;5046534;28;19925;-49
2022/04/22 06:34:30;;;;;;;;;;;11.70;99.90;;;;;;5051835;28;20345;-49
2022/04/22 06:36:57;;;;;;;;;;;11.70;99.90;;;;;;5049290;28;20391;-48
2022/04/22 06:39:24;;;;;;;;;;;11.40;99.90;;;;;;5050019;28;19933;-48
2022/04/22 06:47:22;;;;;;;;;;;11.30;99.90;;;;;;5051450;28;19955;-47
2022/04/22 06:49:49;;;;;;;;;;;11.70;99.90;;;;;;5051354;28;19925;-48
2022/04/22 06:52:16;;;;;;;;;;;12.50;99.90;;;;;;5050752;28;19979;-48
2022/04/22 06:54:43;;;;;;;;;;;12.50;99.90;;;;;;5049097;28;20365;-49
2022/04/22 06:57:10;;;;;;;;;;;12.50;99.90;;;;;;5047835;28;19924;-48
2022/04/22 06:59:39;;;;;;;;;;;13.90;99.90;;;;;;5050946;28;20105;-49
2022/04/22 07:02:06;;;;;;;;;;;15.40;99.90;;;;;;5050519;28;19990;-49
2022/04/22 07:04:33;;;;;;;;;;;17.20;99.90;;;;;;5043501;28;19933;-48
2022/04/22 07:07:00;;;;;;;;;;;17.30;99.90;;;;;;5036420;28;19929;-48
2022/04/22 07:09:27;;;;;;;;;;;16.80;99.90;;;;;;5037668;28;19929;-49
2022/04/22 07:11:55;;;;;;;;;;;16.10;99.90;;;;;;5043601;28;19924;-48
2022/04/22 07:14:22;;;;;;;;;;;16.40;99.90;;;;;;5045830;28;19929;-49
2022/04/22 07:16:51;;;;;;;;;;;17.70;99.90;;;;;;5039543;28;19932;-49
2022/04/22 07:19:18;;;;;;;;;;;17.70;98.10;;;;;;5034776;28;19936;-49
2022/04/22 07:21:45;;;;;;;;;;;17.00;98.90;;;;;;5052986;28;19936;-48
2022/04/22 07:24:12;;;;;;;;;;;16.70;99.00;;;;;;5053426;28;20440;-49
2022/04/22 07:26:41;;;;;;;;;;;16.70;98.80;;;;;;5053524;28;19990;-48
2022/04/22 07:29:09;;;;;;;;;;;15.80;99.30;;;;;;5052342;28;19925;-49
2022/04/22 07:31:36;;;;;;;;;;;15.30;99.90;;;;;;5038263;28;19940;-48
2022/04/22 07:34:09;;;;;;;;;;;13.60;99.90;;;;;;5035961;28;19925;-48
2022/04/22 07:36:37;;;;;;;;;;;13.00;99.90;;;;;;5040197;28;19937;-49
2022/04/22 07:39:04;;;;;;;;;;;14.10;99.90;;;;;;5034732;28;19997;-49
2022/04/22 07:41:36;;;;;;;;;;;14.70;99.90;;;;;;5035870;28;19975;-48
2022/04/22 07:46:48;;;;;;;;;;;17.50;99.80;;;;;;5050006;28;19978;-49
2022/04/22 07:49:17;;;;;;;;;;;18.20;97.00;;;;;;5052956;28;19931;-47
2022/04/22 07:51:43;;;;;;;;;;;18.40;96.30;;;;;;5052494;28;19925;-49
2022/04/22 07:54:12;;;;;;;;;;;17.80;96.40;;;;;;5053134;28;19978;-48
2022/04/22 07:56:41;;;;;;;;;;;17.00;96.90;;;;;;5053050;28;20485;-49
2022/04/22 07:59:08;;;;;;;;;;;16.60;98.10;;;;;;5052827;28;20318;-49
2022/04/22 08:01:38;;;;;;;;;;;16.60;98.10;;;;;;5050406;28;20042;-49
2022/04/22 08:04:05;;;;;;;;;;;16.20;98.90;;;;;;5050742;28;19931;-48
2022/04/22 08:06:35;;;;;;;;;;;16.50;99.80;;;;;;5052757;28;19975;-49
2022/04/22 08:09:02;;;;;;;;;;;17.40;98.20;;;;;;5052469;28;19954;-48
2022/04/22 08:11:30;;;;;;;;;;;17.80;96.80;;;;;;5051574;28;20154;-49
2022/04/22 08:13:58;;;;;;;;;;;17.80;96.50;;;;;;5034068;28;19975;-49
2022/04/22 08:16:25;;;;;;;;;;;19.50;95.70;;;;;;5034057;28;19925;-48
2022/04/22 08:18:51;;;;;;;;;;;20.90;92.60;;;;;;5045909;28;20023;-48
2022/04/22 08:21:18;;;;;;;;;;;19.50;93.50;;;;;;5050697;28;20106;-49
2022/04/22 08:23:48;;;;;;;;;;;19.90;92.90;;;;;;5042674;28;19979;-50
2022/04/22 08:26:15;;;;;;;;;;;20.90;91.80;;;;;;5039445;28;19925;-50
2022/04/22 08:28:43;;;;;;;;;;;21.00;90.80;;;;;;5036664;28;19925;-49
2022/04/22 08:31:10;;;;;;;;;;;19.10;92.00;;;;;;5037456;28;19971;-49
2022/04/22 08:33:38;;;;;;;;;;;18.90;93.50;;;;;;5037731;28;20441;-49
2022/04/22 08:36:05;;;;;;;;;;;19.00;93.60;;;;;;5048898;28;19970;-49
2022/04/22 08:38:32;;;;;;;;;;;19.00;93.00;;;;;;5052551;28;19925;-49
2022/04/22 08:41:01;;;;;;;;;;;19.70;92.90;;;;;;5040868;28;19929;-49
2022/04/22 08:43:28;;;;;;;;;;;21.30;90.70;;;;;;5050200;28;19925;-50
2022/04/22 08:45:54;;;;;;;;;;;20.90;91.00;;;;;;5053112;28;19970;-49
2022/04/22 08:51:07;;;;;;;;;;;21.80;87.20;;;;;;5051895;28;19936;-49
2022/04/22 08:53:34;;;;;;;;;;;22.80;85.10;;;;;;5053205;28;20418;-49
2022/04/22 08:56:03;;;;;;;;;;;23.00;83.60;;;;;;5053144;28;19975;-50
2022/04/22 08:58:30;;;;;;;;;;;23.00;83.10;;;;;;5052925;28;19971;-49
2022/04/22 09:00:58;;;;;;;;;;;23.50;80.10;;;;;;5052940;28;20294;-50
2022/04/22 09:03:26;;;;;;;;;;;24.60;79.20;;;;;;5053176;28;19967;-50
2022/04/22 09:05:53;;;;;;;;;;;25.00;75.40;;;;;;5051780;28;19924;-50
2022/04/22 09:08:19;;;;;;;;;;;24.60;74.40;;;;;;5052793;28;19971;-50
2022/04/22 09:10:52;;;;;;;;;;;23.70;77.10;;;;;;5053042;28;19991;-50
2022/04/22 09:13:26;;;;;;;;;;;22.50;79.70;;;;;;5052795;28;19925;-49
2022/04/22 09:15:53;;;;;;;;;;;20.10;81.90;;;;;;5053055;28;19999;-48
2022/04/22 09:18:23;;;;;;;;;;;18.60;85.80;;;;;;5052837;28;19946;-49
2022/04/22 09:20:50;;;;;;;;;;;17.90;88.60;;;;;;5051361;28;19934;-49
2022/04/22 09:23:30;;;;;;;;;;;17.00;91.60;;;;;;5052412;28;19971;-47
2022/04/22 09:25:57;;;;;;;;;;;16.90;90.40;;;;;;5032804;28;19925;-48
2022/04/22 09:28:25;;;;;;;;;;;18.00;90.80;;;;;;5032827;28;19925;-48
2022/04/22 09:30:58;;;;;;;;;;;19.10;86.70;;;;;;5031924;28;19976;-48
2022/04/22 09:33:25;;;;;;;;;;;19.60;85.60;;;;;;5032958;28;19971;-48
2022/04/22 09:44:23;;;;;;;;;;;20.90;86.10;;;;;;5052249;28;20054;-48
2022/04/22 09:46:49;;;;;;;;;;;21.60;81.50;;;;;;5052308;28;19924;-48
2022/04/22 09:49:37;;;;;;;;;;;22.10;80.10;;;;;;5052134;28;19925;-48
2022/04/22 09:52:05;;;;;;;;;;;21.60;81.50;;;;;;5049960;28;19929;-49
2022/04/22 09:54:32;;;;;;;;;;;21.80;83.10;;;;;;5051628;28;19933;-49
2022/04/22 09:57:01;;;;;;;;;;;22.60;84.20;;;;;;5048338;28;20275;-49
2022/04/22 09:59:32;;;;;;;;;;;22.90;77.60;;;;;;5077520;22;20288;-59
2022/04/22 10:02:00;;;;;;;;;;;23.40;77.30;;;;;;5070280;28;19925;-59
2022/04/22 10:04:28;;;;;;;;;;;23.10;77.30;;;;;;5079062;28;20002;-58
2022/04/22 10:06:56;;;;;;;;;;;22.40;76.90;;;;;;5090988;28;20249;-58
2022/04/22 10:09:23;;;;;;;;;;;23.40;76.50;;;;;;5090825;28;19985;-59
2022/04/22 10:11:54;;;;;;;;;;;23.20;74.90;;;;;;5088030;28;19933;-58
2022/04/22 10:14:26;;;;;;;;;;;23.90;74.20;;;;;;5073076;28;19972;-58
2022/04/22 10:16:54;;;;;;;;;;;23.90;72.70;;;;;;5079581;28;20247;-58
2022/04/22 10:19:21;;;;;;;;;;;23.90;74.90;;;;;;5071407;28;19924;-60
2022/04/22 10:21:49;;;;;;;;;;;24.80;71.30;;;;;;5070606;28;19971;-59
2022/04/22 10:24:16;;;;;;;;;;;24.50;72.00;;;;;;5072100;28;19981;-59
2022/04/22 10:26:43;;;;;;;;;;;24.10;71.90;;;;;;5077106;28;20019;-58
2022/04/22 10:29:10;;;;;;;;;;;24.00;70.60;;;;;;5070362;28;19928;-58
2022/04/22 10:31:39;;;;;;;;;;;24.00;70.90;;;;;;5073238;28;20408;-58
2022/04/22 10:34:08;;;;;;;;;;;24.60;69.70;;;;;;5075026;28;20428;-58
2022/04/22 10:36:40;;;;;;;;;;;24.70;70.50;;;;;;5088846;28;19928;-59
2022/04/22 10:39:07;;;;;;;;;;;24.80;70.80;;;;;;5091001;28;19934;-58
2022/04/22 10:41:38;;;;;;;;;;;24.00;69.80;;;;;;5092437;28;19970;-58
2022/04/22 10:49:39;;;;;;;;;;;23.00;72.10;;;;;;5081972;28;20449;-58
2022/04/22 10:52:11;;;;;;;;;;;20.60;77.50;;;;;;5074517;28;20370;-58
2022/04/22 10:54:58;;;;;;;;;;;18.80;81.60;;;;;;5082009;28;19991;-58
2022/04/22 10:57:27;;;;;;;;;;;18.90;83.00;;;;;;5092888;28;19924;-58
2022/04/22 11:00:02;;;;;;;;;;;19.00;85.50;;;;;;5094748;28;20002;-59
2022/04/22 11:02:30;;;;;;;;;;;18.80;83.90;;;;;;5094585;28;20419;-58
2022/04/22 11:05:11;;;;;;;;;;;18.70;85.90;;;;;;5084822;28;20303;-58
2022/04/22 11:07:53;;;;;;;;;;;18.40;86.10;;;;;;5072538;28;19924;-58
2022/04/22 11:10:22;;;;;;;;;;;18.80;82.90;;;;;;5071849;28;19924;-57
2022/04/22 11:12:53;;;;;;;;;;;18.80;85.50;;;;;;5073653;28;19924;-58
2022/04/22 11:15:34;;;;;;;;;;;19.00;79.20;;;;;;5074340;28;19924;-58
2022/04/22 11:18:01;;;;;;;;;;;19.20;83.70;;;;;;5091893;28;20015;-57
2022/04/22 11:20:28;;;;;;;;;;;19.40;80.70;;;;;;5081433;28;19980;-57
2022/04/22 11:22:56;;;;;;;;;;;19.40;84.60;;;;;;5081251;28;19978;-58
2022/04/22 11:25:25;;;;;;;;;;;19.30;81.10;;;;;;5073629;28;20395;-58
2022/04/22 11:27:54;;;;;;;;;;;18.80;81.30;;;;;;5094096;28;20004;-59
2022/04/22 11:30:22;;;;;;;;;;;18.30;84.70;;;;;;5093830;28;20033;-59
2022/04/22 11:32:49;;;;;;;;;;;17.80;85.30;;;;;;5075649;28;20412;-59
2022/04/22 11:35:22;;;;;;;;;;;17.30;88.30;;;;;;5089393;28;19967;-59
2022/04/22 11:37:59;;;;;;;;;;;17.00;87.60;;;;;;5094732;28;20280;-59
2022/04/22 11:40:27;;;;;;;;;;;16.80;90.20;;;;;;5090907;28;19994;-59
2022/04/22 11:42:55;;;;;;;;;;;17.10;91.00;;;;;;5074015;28;19924;-59
2022/04/22 11:45:22;;;;;;;;;;;17.60;89.20;;;;;;5089339;28;19956;-60
2022/04/22 11:47:49;;;;;;;;;;;18.20;88.20;;;;;;5094907;28;19928;-59
2022/04/22 11:50:19;;;;;;;;;;;18.30;90.60;;;;;;5093820;28;20280;-59
2022/04/22 11:52:51;;;;;;;;;;;18.70;83.80;;;;;;5092787;28;19970;-59
2022/04/22 11:55:18;;;;;;;;;;;17.70;85.30;;;;;;5077178;28;20019;-57
2022/04/22 11:57:46;;;;;;;;;;;17.50;87.30;;;;;;5073572;28;19924;-59
2022/04/22 12:05:43;;;;;;;;;;;17.10;87.90;;;;;;5091392;28;19931;-58
2022/04/22 12:08:11;;;;;;;;;;;17.30;88.10;;;;;;5093668;28;19927;-59
2022/04/22 12:10:38;;;;;;;;;;;17.10;86.50;;;;;;5093146;28;19928;-59
2022/04/22 12:13:08;;;;;;;;;;;17.20;90.20;;;;;;5093232;28;19927;-59
2022/04/22 12:15:43;;;;;;;;;;;17.10;88.70;;;;;;5076540;28;19931;-59
2022/04/22 12:18:25;;;;;;;;;;;17.00;88.90;;;;;;5072780;28;19924;-59
2022/04/22 12:20:51;;;;;;;;;;;17.30;90.40;;;;;;5071006;28;20020;-59
2022/04/22 12:23:18;;;;;;;;;;;17.10;89.10;;;;;;5087013;28;20023;-58
2022/04/22 12:25:53;;;;;;;;;;;17.40;90.50;;;;;;5073318;28;20024;-59
2022/04/22 12:28:21;;;;;;;;;;;17.70;90.00;;;;;;5071920;28;20071;-59
2022/04/22 12:30:48;;;;;;;;;;;18.10;87.80;;;;;;5071675;28;19924;-59
2022/04/22 12:33:17;;;;;;;;;;;18.50;88.80;;;;;;5071526;28;19933;-59
2022/04/22 12:35:45;;;;;;;;;;;18.70;87.70;;;;;;5073370;28;20305;-59
2022/04/22 12:38:13;;;;;;;;;;;18.80;87.90;;;;;;5072475;28;19991;-58
2022/04/22 12:40:50;;;;;;;;;;;18.30;89.20;;;;;;5072719;28;19931;-59
2022/04/22 12:43:28;;;;;;;;;;;18.30;88.20;;;;;;5071872;28;19932;-59
2022/04/22 12:54:41;;;;;;;;;;;18.70;91.20;;;;;;5029795;28;20252;-59
2022/04/22 12:57:11;;;;;;;;;;;18.70;90.20;;;;;;5027588;28;20304;-59
2022/04/22 12:59:44;;;;;;;;;;;18.80;91.40;;;;;;5050347;28;20031;-59
2022/04/22 13:02:10;;;;;;;;;;;18.60;90.40;;;;;;5072849;28;19963;-59
2022/04/22 13:04:50;;;;;;;;;;;18.10;91.70;;;;;;5077866;28;20309;-59
2022/04/22 13:07:17;;;;;;;;;;;18.20;91.60;;;;;;5071276;28;19929;-59
2022/04/22 13:09:44;;;;;;;;;;;17.80;92.00;;;;;;5070600;28;20230;-59
2022/04/22 13:12:30;;;;;;;;;;;17.70;91.70;;;;;;5069880;28;20645;-58
2022/04/22 13:14:58;;;;;;;;;;;18.00;91.70;;;;;;5081925;28;20305;-58
2022/04/22 13:17:25;;;;;;;;;;;18.10;93.30;;;;;;5078002;28;19934;-59
2022/04/22 13:19:53;;;;;;;;;;;18.30;92.20;;;;;;5071205;28;20061;-58
2022/04/22 13:22:20;;;;;;;;;;;18.60;92.10;;;;;;5071291;28;20019;-59
2022/04/22 13:24:47;;;;;;;;;;;18.50;93.00;;;;;;5071268;28;19928;-59
2022/04/22 13:27:14;;;;;;;;;;;18.30;91.50;;;;;;5070372;28;19924;-59
2022/04/22 13:29:41;;;;;;;;;;;18.20;92.70;;;;;;5071248;28;19925;-59
2022/04/22 13:32:10;;;;;;;;;;;18.00;92.10;;;;;;5071289;28;20019;-59
2022/04/22 13:34:36;;;;;;;;;;;18.00;91.60;;;;;;5078758;28;19924;-60
2022/04/22 13:37:03;;;;;;;;;;;17.90;93.10;;;;;;5091774;28;19924;-59
2022/04/22 13:39:30;;;;;;;;;;;18.00;93.60;;;;;;5091948;28;19977;-59
2022/04/22 13:41:57;;;;;;;;;;;18.40;94.00;;;;;;5091325;28;19974;-59
2022/04/22 13:52:37;;;;;;;;;;;19.20;92.50;;;;;;5070846;28;19936;-60
2022/04/22 13:55:05;;;;;;;;;;;19.10;92.30;;;;;;5074324;28;20041;-59
2022/04/22 13:57:32;;;;;;;;;;;19.40;92.60;;;;;;5078934;28;19971;-59
2022/04/22 13:59:59;;;;;;;;;;;19.70;91.70;;;;;;5091251;28;19924;-59
2022/04/22 14:02:25;;;;;;;;;;;19.80;91.60;;;;;;5075961;28;19925;-59
2022/04/22 14:04:54;;;;;;;;;;;19.70;91.60;;;;;;5081414;28;19924;-60
2022/04/22 14:07:21;;;;;;;;;;;19.80;91.10;;;;;;5091085;28;19947;-59
2022/04/22 14:09:47;;;;;;;;;;;19.80;91.30;;;;;;5091258;28;20005;-59
2022/04/22 14:12:14;;;;;;;;;;;19.50;91.10;;;;;;5083886;28;19928;-59
2022/04/22 14:14:43;;;;;;;;;;;19.30;92.00;;;;;;5081536;28;19978;-59
2022/04/22 14:17:10;;;;;;;;;;;19.20;91.60;;;;;;5090468;28;20342;-59
2022/04/22 14:19:37;;;;;;;;;;;19.40;92.30;;;;;;5084599;28;20001;-60
2022/04/22 14:22:06;;;;;;;;;;;19.20;91.80;;;;;;5070716;28;20390;-59
2022/04/22 14:24:33;;;;;;;;;;;19.30;92.20;;;;;;5070779;28;20443;-60
2022/04/22 14:27:01;;;;;;;;;;;19.60;91.90;;;;;;5070788;28;20159;-59
2022/04/22 14:29:27;;;;;;;;;;;19.50;91.80;;;;;;5070638;28;20279;-59
2022/04/22 14:31:54;;;;;;;;;;;19.30;91.80;;;;;;5070506;28;20279;-59
2022/04/22 14:34:21;;;;;;;;;;;19.40;92.30;;;;;;5077660;28;19928;-58
2022/04/22 14:36:48;;;;;;;;;;;19.10;93.60;;;;;;5090707;28;19939;-59
2022/04/22 14:39:16;;;;;;;;;;;19.10;92.40;;;;;;5075377;28;19971;-59
2022/04/22 14:41:45;;;;;;;;;;;19.00;94.10;;;;;;5070471;28;20431;-59
2022/04/22 14:44:14;;;;;;;;;;;18.90;94.40;;;;;;5076199;28;20019;-58
2022/04/22 14:46:41;;;;;;;;;;;19.00;93.40;;;;;;5090729;28;20377;-59
2022/04/22 14:49:07;;;;;;;;;;;19.30;93.60;;;;;;5090948;28;20304;-58
2022/04/22 14:51:34;;;;;;;;;;;19.00;93.60;;;;;;5090808;28;20382;-58
2022/04/22 14:54:01;;;;;;;;;;;18.70;93.70;;;;;;5086534;28;20058;-59
2022/04/22 14:56:31;;;;;;;;;;;18.50;93.80;;;;;;5070843;28;20019;-59
2022/04/22 14:58:58;;;;;;;;;;;18.20;94.10;;;;;;5070363;28;19989;-60
2022/04/22 15:01:25;;;;;;;;;;;18.20;95.20;;;;;;5070483;28;19970;-59
2022/04/22 15:03:52;;;;;;;;;;;18.50;95.80;;;;;;5075573;28;19924;-59
2022/04/22 15:06:18;;;;;;;;;;;18.50;94.70;;;;;;5091355;28;19940;-59
2022/04/22 15:08:45;;;;;;;;;;;18.30;94.20;;;;;;5090394;28;19924;-59
2022/04/22 15:11:12;;;;;;;;;;;18.50;93.10;;;;;;5090418;28;19932;-59
2022/04/22 15:13:40;;;;;;;;;;;18.40;94.90;;;;;;5087155;28;19925;-59
2022/04/22 15:16:07;;;;;;;;;;;18.30;94.60;;;;;;5070148;28;19924;-59
2022/04/22 15:24:13;;;;;;;;;;;18.40;94.60;;;;;;5085871;28;19927;-59
2022/04/22 15:26:42;;;;;;;;;;;18.30;94.50;;;;;;5090910;28;20015;-59
2022/04/22 15:29:11;;;;;;;;;;;18.10;95.20;;;;;;5094070;28;20290;-60
2022/04/22 15:31:39;;;;;;;;;;;18.30;94.80;;;;;;5093850;28;19928;-59
2022/04/22 15:34:05;;;;;;;;;;;18.20;94.00;;;;;;5093306;28;19924;-59
2022/04/22 15:36:37;;;;;;;;;;;18.40;95.20;;;;;;5074545;28;19925;-59
2022/04/22 15:39:04;;;;;;;;;;;18.40;94.60;;;;;;5072934;28;20335;-59
2022/04/22 15:41:32;;;;;;;;;;;18.30;93.90;;;;;;5073038;28;19933;-60
2022/04/22 15:44:00;;;;;;;;;;;18.30;93.50;;;;;;5072146;28;19924;-60